createdAt,value
2018-07-02T00:00:38.926Z,971.77
2018-07-02T00:01:38.902Z,971.71
2018-07-02T00:02:38.896Z,971.70
2018-07-02T00:03:38.884Z,971.71
2018-07-02T00:04:38.865Z,971.68
2018-07-02T00:05:38.869Z,971.69
2018-07-02T00:06:38.838Z,971.71
2018-07-02T00:07:38.821Z,971.70
2018-07-02T00:08:38.807Z,971.70
2018-07-02T00:09:38.793Z,971.73
2018-07-02T00:10:38.780Z,971.69
2018-07-02T00:11:38.786Z,971.70
2018-07-02T00:12:38.756Z,971.74
2018-07-02T00:13:38.739Z,971.72
2018-07-02T00:14:38.725Z,971.77
2018-07-02T00:15:38.715Z,971.73
2018-07-02T00:16:38.704Z,971.75
2018-07-02T00:17:38.700Z,971.74
2018-07-02T00:18:38.677Z,971.73
2018-07-02T00:19:38.659Z,971.72
2018-07-02T00:20:38.646Z,971.73
2018-07-02T00:21:38.631Z,971.72
2018-07-02T00:22:38.636Z,971.68
2018-07-02T00:23:38.608Z,971.66
2018-07-02T00:24:38.594Z,971.68
2018-07-02T00:25:38.581Z,971.64
2018-07-02T00:26:38.569Z,971.64
2018-07-02T00:27:38.551Z,971.67
2018-07-02T00:28:38.549Z,971.69
2018-07-02T00:29:38.529Z,971.66
2018-07-02T00:30:38.515Z,971.70
2018-07-02T00:31:38.506Z,971.67
2018-07-02T00:32:38.486Z,971.67
2018-07-02T00:33:38.483Z,971.68
2018-07-02T00:34:38.461Z,971.70
2018-07-02T00:35:38.451Z,971.68
2018-07-02T00:36:38.437Z,971.67
2018-07-02T00:37:38.427Z,971.65
2018-07-02T00:38:38.412Z,971.64
2018-07-02T00:39:38.411Z,971.61
2018-07-02T00:40:38.383Z,971.64
2018-07-02T00:41:38.370Z,971.65
2018-07-02T00:42:38.397Z,971.67
2018-07-02T00:43:38.349Z,971.65
2018-07-02T00:44:38.351Z,971.65
2018-07-02T00:45:38.319Z,971.60
2018-07-02T00:46:38.306Z,971.60
2018-07-02T00:47:38.296Z,971.64
2018-07-02T00:48:38.283Z,971.63
2018-07-02T00:49:38.271Z,971.66
2018-07-02T00:50:38.268Z,971.64
2018-07-02T00:51:38.241Z,971.65
2018-07-02T00:52:38.230Z,971.66
2018-07-02T00:53:38.218Z,971.69
2018-07-02T00:54:38.208Z,971.65
2018-07-02T00:55:38.215Z,971.66
2018-07-02T00:56:38.186Z,971.68
2018-07-02T00:57:38.174Z,971.65
2018-07-02T00:58:38.163Z,971.63
2018-07-02T00:59:38.149Z,971.58
2018-07-02T01:00:38.138Z,971.60
2018-07-02T01:01:38.140Z,971.64
2018-07-02T01:02:38.118Z,971.62
2018-07-02T01:03:38.104Z,971.63
2018-07-02T01:04:38.094Z,971.58
2018-07-02T01:05:38.082Z,971.57
2018-07-02T01:06:38.084Z,971.61
2018-07-02T01:07:38.065Z,971.59
2018-07-02T01:08:38.054Z,971.54
2018-07-02T01:09:38.044Z,971.61
2018-07-02T01:10:38.034Z,971.64
2018-07-02T01:11:38.039Z,971.63
2018-07-02T01:12:38.011Z,971.64
2018-07-02T01:13:38.004Z,971.62
2018-07-02T01:14:37.992Z,971.63
2018-07-02T01:15:37.986Z,971.68
2018-07-02T01:16:37.977Z,971.61
2018-07-02T01:17:37.974Z,971.62
2018-07-02T01:18:37.954Z,971.62
2018-07-02T01:19:37.948Z,971.60
2018-07-02T01:20:37.940Z,971.60
2018-07-02T01:21:37.931Z,971.58
2018-07-02T01:22:37.939Z,971.55
2018-07-02T01:23:37.912Z,971.56
2018-07-02T01:24:37.903Z,971.57
2018-07-02T01:25:37.894Z,971.57
2018-07-02T01:26:37.885Z,971.57
2018-07-02T01:27:37.879Z,971.57
2018-07-02T01:28:37.881Z,971.55
2018-07-02T01:29:37.864Z,971.60
2018-07-02T01:30:37.855Z,971.58
2018-07-02T01:31:37.843Z,971.57
2018-07-02T01:32:37.834Z,971.55
2018-07-02T01:33:37.848Z,971.65
2018-07-02T01:34:37.823Z,971.61
2018-07-02T01:35:37.810Z,971.62
2018-07-02T01:36:37.808Z,971.63
2018-07-02T01:37:37.795Z,971.60
2018-07-02T01:38:37.787Z,971.64
2018-07-02T01:39:37.793Z,971.65
2018-07-02T01:40:37.774Z,971.60
2018-07-02T01:41:37.767Z,971.62
2018-07-02T01:42:37.768Z,971.62
2018-07-02T01:43:37.748Z,971.63
2018-07-02T01:44:37.756Z,971.64
2018-07-02T01:45:37.732Z,971.60
2018-07-02T01:46:37.723Z,971.62
2018-07-02T01:47:37.719Z,971.67
2018-07-02T01:48:37.710Z,971.64
2018-07-02T01:49:37.700Z,971.63
2018-07-02T01:50:37.701Z,971.59
2018-07-02T01:51:37.686Z,971.58
2018-07-02T01:52:37.681Z,971.58
2018-07-02T01:53:37.673Z,971.58
2018-07-02T01:54:37.663Z,971.60
2018-07-02T01:55:37.669Z,971.61
2018-07-02T01:56:37.644Z,971.59
2018-07-02T01:57:37.636Z,971.56
2018-07-02T01:58:37.627Z,971.64
2018-07-02T01:59:37.623Z,971.56
2018-07-02T02:00:37.616Z,971.55
2018-07-02T02:01:37.617Z,971.54
2018-07-02T02:02:37.600Z,971.55
2018-07-02T02:03:37.589Z,971.57
2018-07-02T02:04:37.580Z,971.56
2018-07-02T02:05:37.577Z,971.54
2018-07-02T02:06:37.586Z,971.52
2018-07-02T02:07:37.557Z,971.53
2018-07-02T02:08:37.549Z,971.51
2018-07-02T02:09:37.541Z,971.53
2018-07-02T02:10:37.538Z,971.52
2018-07-02T02:11:37.540Z,971.48
2018-07-02T02:12:37.531Z,971.51
2018-07-02T02:13:37.512Z,971.49
2018-07-02T02:14:37.505Z,971.50
2018-07-02T02:15:37.494Z,971.53
2018-07-02T02:16:37.487Z,971.52
2018-07-02T02:17:37.495Z,971.51
2018-07-02T02:18:37.470Z,971.54
2018-07-02T02:19:37.465Z,971.49
2018-07-02T02:20:37.458Z,971.55
2018-07-02T02:21:37.447Z,971.48
2018-07-02T02:22:37.438Z,971.51
2018-07-02T02:23:37.443Z,971.50
2018-07-02T02:24:37.428Z,971.49
2018-07-02T02:25:37.419Z,971.53
2018-07-02T02:26:37.412Z,971.54
2018-07-02T02:27:37.399Z,971.50
2018-07-02T02:28:37.413Z,971.51
2018-07-02T02:29:37.384Z,971.50
2018-07-02T02:30:37.374Z,971.47
2018-07-02T02:31:37.373Z,971.51
2018-07-02T02:32:37.362Z,971.49
2018-07-02T02:33:37.353Z,971.47
2018-07-02T02:34:37.356Z,971.44
2018-07-02T02:35:37.335Z,971.43
2018-07-02T02:36:37.332Z,971.45
2018-07-02T02:37:37.336Z,971.41
2018-07-02T02:38:37.331Z,971.49
2018-07-02T02:39:37.322Z,971.42
2018-07-02T02:40:37.301Z,971.47
2018-07-02T02:41:37.293Z,971.46
2018-07-02T02:42:37.279Z,971.44
2018-07-02T02:43:37.275Z,971.46
2018-07-02T02:44:37.266Z,971.45
2018-07-02T02:45:37.270Z,971.48
2018-07-02T02:46:37.250Z,971.42
2018-07-02T02:47:37.239Z,971.41
2018-07-02T02:48:37.231Z,971.38
2018-07-02T02:49:37.224Z,971.44
2018-07-02T02:50:37.230Z,971.44
2018-07-02T02:51:37.210Z,971.42
2018-07-02T02:52:37.204Z,971.45
2018-07-02T02:53:37.192Z,971.46
2018-07-02T02:54:37.183Z,971.48
2018-07-02T02:55:37.181Z,971.49
2018-07-02T02:56:37.184Z,971.45
2018-07-02T02:57:37.169Z,971.50
2018-07-02T02:58:37.157Z,971.44
2018-07-02T02:59:37.146Z,971.43
2018-07-02T03:00:37.137Z,971.48
2018-07-02T03:01:37.146Z,971.48
2018-07-02T03:02:37.121Z,971.45
2018-07-02T03:03:37.124Z,971.49
2018-07-02T03:04:37.112Z,971.49
2018-07-02T03:05:37.102Z,971.44
2018-07-02T03:06:37.105Z,971.48
2018-07-02T03:07:37.092Z,971.48
2018-07-02T03:08:37.074Z,971.44
2018-07-02T03:09:37.093Z,971.45
2018-07-02T03:10:37.062Z,971.47
2018-07-02T03:11:37.051Z,971.40
2018-07-02T03:12:37.053Z,971.46
2018-07-02T03:13:37.033Z,971.42
2018-07-02T03:14:37.025Z,971.43
2018-07-02T03:15:37.020Z,971.45
2018-07-02T03:16:37.012Z,971.42
2018-07-02T03:17:37.021Z,971.40
2018-07-02T03:18:36.995Z,971.39
2018-07-02T03:19:36.982Z,971.39
2018-07-02T03:20:36.972Z,971.35
2018-07-02T03:21:36.963Z,971.38
2018-07-02T03:22:36.952Z,971.42
2018-07-02T03:23:36.962Z,971.40
2018-07-02T03:24:36.938Z,971.39
2018-07-02T03:25:36.924Z,971.45
2018-07-02T03:26:36.916Z,971.39
2018-07-02T03:27:36.907Z,971.45
2018-07-02T03:28:36.900Z,971.42
2018-07-02T03:29:36.897Z,971.44
2018-07-02T03:30:36.877Z,971.42
2018-07-02T03:31:36.866Z,971.41
2018-07-02T03:32:36.854Z,971.45
2018-07-02T03:33:36.843Z,971.48
2018-07-02T03:34:36.852Z,971.41
2018-07-02T03:35:36.827Z,971.44
2018-07-02T03:36:36.816Z,971.48
2018-07-02T03:37:36.807Z,971.44
2018-07-02T03:38:36.796Z,971.43
2018-07-02T03:39:36.783Z,971.40
2018-07-02T03:40:36.783Z,971.44
2018-07-02T03:41:36.766Z,971.42
2018-07-02T03:42:36.758Z,971.46
2018-07-02T03:43:36.745Z,971.41
2018-07-02T03:44:36.732Z,971.45
2018-07-02T03:45:36.739Z,971.47
2018-07-02T03:46:36.712Z,971.49
2018-07-02T03:47:36.705Z,971.49
2018-07-02T03:48:36.695Z,971.43
2018-07-02T03:49:36.684Z,971.47
2018-07-02T03:50:36.675Z,971.40
2018-07-02T03:51:36.670Z,971.46
2018-07-02T03:52:36.654Z,971.44
2018-07-02T03:53:36.641Z,971.46
2018-07-02T03:54:36.630Z,971.42
2018-07-02T03:55:36.624Z,971.35
2018-07-02T03:56:36.629Z,971.37
2018-07-02T03:57:36.600Z,971.34
2018-07-02T03:58:36.590Z,971.32
2018-07-02T03:59:36.583Z,971.36
2018-07-02T04:00:36.573Z,971.36
2018-07-02T04:01:36.567Z,971.39
2018-07-02T04:02:36.563Z,971.34
2018-07-02T04:03:36.541Z,971.40
2018-07-02T04:04:36.529Z,971.45
2018-07-02T04:05:36.521Z,971.47
2018-07-02T04:06:36.511Z,971.49
2018-07-02T04:07:36.524Z,971.46
2018-07-02T04:08:36.498Z,971.52
2018-07-02T04:09:36.489Z,971.53
2018-07-02T04:10:36.481Z,971.43
2018-07-02T04:11:36.467Z,971.49
2018-07-02T04:12:36.458Z,971.47
2018-07-02T04:13:36.463Z,971.45
2018-07-02T04:14:36.445Z,971.46
2018-07-02T04:15:36.431Z,971.49
2018-07-02T04:16:36.428Z,971.46
2018-07-02T04:17:36.414Z,971.48
2018-07-02T04:18:36.422Z,971.52
2018-07-02T04:19:36.400Z,971.53
2018-07-02T04:20:36.392Z,971.57
2018-07-02T04:21:36.383Z,971.55
2018-07-02T04:22:36.375Z,971.57
2018-07-02T04:23:36.362Z,971.59
2018-07-02T04:24:36.367Z,971.60
2018-07-02T04:25:36.346Z,971.60
2018-07-02T04:26:36.338Z,971.64
2018-07-02T04:27:36.333Z,971.65
2018-07-02T04:28:36.326Z,971.64
2018-07-02T04:29:36.323Z,971.68
2018-07-02T04:30:36.304Z,971.68
2018-07-02T04:31:36.298Z,971.67
2018-07-02T04:32:36.294Z,971.65
2018-07-02T04:33:36.281Z,971.66
2018-07-02T04:34:36.293Z,971.66
2018-07-02T04:35:36.261Z,971.66
2018-07-02T04:36:36.252Z,971.56
2018-07-02T04:37:36.245Z,971.58
2018-07-02T04:38:36.235Z,971.55
2018-07-02T04:39:36.232Z,971.55
2018-07-02T04:40:36.241Z,971.52
2018-07-02T04:41:36.214Z,971.53
2018-07-02T04:42:36.207Z,971.56
2018-07-02T04:43:36.195Z,971.57
2018-07-02T04:44:36.209Z,971.57
2018-07-02T04:45:36.187Z,971.53
2018-07-02T04:46:36.191Z,971.50
2018-07-02T04:47:36.166Z,971.52
2018-07-02T04:48:36.159Z,971.51
2018-07-02T04:49:36.150Z,971.48
2018-07-02T04:50:36.147Z,971.47
2018-07-02T04:51:36.145Z,971.55
2018-07-02T04:52:36.128Z,971.53
2018-07-02T04:53:36.118Z,971.55
2018-07-02T04:54:36.119Z,971.56
2018-07-02T04:55:36.101Z,971.63
2018-07-02T04:56:36.109Z,971.63
2018-07-02T04:57:36.082Z,971.63
2018-07-02T04:58:36.072Z,971.65
2018-07-02T04:59:36.068Z,971.61
2018-07-02T05:00:36.055Z,971.56
2018-07-02T05:01:36.047Z,971.61
2018-07-02T05:02:36.050Z,971.52
2018-07-02T05:03:36.026Z,971.51
2018-07-02T05:04:36.018Z,971.53
2018-07-02T05:05:36.004Z,971.54
2018-07-02T05:06:35.995Z,971.46
2018-07-02T05:07:35.985Z,971.50
2018-07-02T05:08:35.980Z,971.49
2018-07-02T05:09:35.964Z,971.53
2018-07-02T05:10:35.948Z,971.56
2018-07-02T05:11:35.940Z,971.56
2018-07-02T05:12:35.929Z,971.60
2018-07-02T05:13:35.935Z,971.57
2018-07-02T05:14:35.907Z,971.56
2018-07-02T05:15:35.892Z,971.56
2018-07-02T05:16:35.879Z,971.49
2018-07-02T05:17:35.871Z,971.49
2018-07-02T05:18:35.863Z,971.47
2018-07-02T05:19:35.855Z,971.45
2018-07-02T05:20:35.832Z,971.43
2018-07-02T05:21:35.818Z,971.48
2018-07-02T05:22:35.807Z,971.46
2018-07-02T05:23:35.796Z,971.40
2018-07-02T05:24:35.797Z,971.43
2018-07-02T05:25:35.768Z,971.39
2018-07-02T05:26:35.806Z,971.37
2018-07-02T05:27:35.878Z,971.37
2018-07-02T05:28:35.723Z,971.36
2018-07-02T05:29:35.710Z,971.38
2018-07-02T05:30:35.707Z,971.41
2018-07-02T05:31:35.687Z,971.38
2018-07-02T05:32:35.799Z,971.36
2018-07-02T05:33:35.658Z,971.41
2018-07-02T05:34:35.645Z,971.42
2018-07-02T05:35:35.651Z,971.44
2018-07-02T05:36:35.622Z,971.42
2018-07-02T05:37:35.612Z,971.42
2018-07-02T05:38:35.597Z,971.50
2018-07-02T05:39:35.608Z,971.45
2018-07-02T05:40:35.570Z,971.44
2018-07-02T05:41:35.568Z,971.44
2018-07-02T05:42:35.546Z,971.49
2018-07-02T05:43:35.536Z,971.50
2018-07-02T05:44:35.524Z,971.54
2018-07-02T05:45:35.514Z,971.53
2018-07-02T05:46:35.517Z,971.53
2018-07-02T05:47:35.486Z,971.50
2018-07-02T05:48:35.495Z,971.51
2018-07-02T05:49:35.468Z,971.54
2018-07-02T05:50:35.455Z,971.49
2018-07-02T05:51:35.460Z,971.43
2018-07-02T05:52:35.430Z,971.45
2018-07-02T05:53:35.417Z,971.44
2018-07-02T05:54:35.409Z,971.46
2018-07-02T05:55:35.400Z,971.50
2018-07-02T05:56:35.388Z,971.43
2018-07-02T05:57:35.478Z,971.47
2018-07-02T05:58:35.366Z,971.42
2018-07-02T05:59:35.352Z,971.39
2018-07-02T06:00:35.385Z,971.40
2018-07-02T06:01:35.331Z,971.40
2018-07-02T06:02:35.337Z,971.42
2018-07-02T06:03:35.313Z,971.42
2018-07-02T06:04:35.300Z,971.46
2018-07-02T06:05:35.287Z,971.41
2018-07-02T06:06:35.276Z,971.50
2018-07-02T06:07:35.268Z,971.48
2018-07-02T06:08:35.268Z,971.56
2018-07-02T06:09:35.247Z,971.52
2018-07-02T06:10:35.235Z,971.53
2018-07-02T06:11:35.222Z,971.61
2018-07-02T06:12:35.211Z,971.58
2018-07-02T06:13:35.219Z,971.60
2018-07-02T06:14:35.189Z,971.65
2018-07-02T06:15:35.183Z,971.65
2018-07-02T06:16:35.186Z,971.73
2018-07-02T06:17:35.159Z,971.73
2018-07-02T06:18:35.149Z,971.73
2018-07-02T06:19:35.144Z,971.69
2018-07-02T06:20:35.126Z,971.70
2018-07-02T06:21:35.116Z,971.76
2018-07-02T06:22:35.105Z,971.72
2018-07-02T06:23:35.091Z,971.77
2018-07-02T06:24:35.098Z,971.73
2018-07-02T06:25:35.070Z,971.84
2018-07-02T06:26:35.059Z,971.81
2018-07-02T06:27:35.052Z,971.81
2018-07-02T06:28:35.040Z,971.84
2018-07-02T06:29:35.037Z,971.85
2018-07-02T06:30:35.120Z,971.79
2018-07-02T06:31:35.004Z,971.89
2018-07-02T06:32:34.995Z,971.94
2018-07-02T06:33:34.983Z,971.94
2018-07-02T06:34:34.974Z,971.91
2018-07-02T06:35:34.982Z,971.95
2018-07-02T06:36:34.954Z,971.89
2018-07-02T06:37:34.940Z,971.89
2018-07-02T06:38:34.931Z,971.93
2018-07-02T06:39:34.923Z,971.98
2018-07-02T06:40:34.911Z,971.90
2018-07-02T06:41:34.912Z,971.93
2018-07-02T06:42:34.891Z,971.93
2018-07-02T06:43:34.875Z,971.93
2018-07-02T06:44:34.865Z,971.93
2018-07-02T06:45:34.872Z,971.94
2018-07-02T06:46:34.844Z,971.96
2018-07-02T06:47:34.837Z,971.96
2018-07-02T06:48:34.876Z,971.95
2018-07-02T06:49:34.815Z,971.97
2018-07-02T06:50:34.803Z,971.94
2018-07-02T06:51:34.805Z,972.02
2018-07-02T06:52:34.779Z,972.00
2018-07-02T06:53:34.772Z,972.00
2018-07-02T06:54:34.761Z,971.97
2018-07-02T06:55:34.747Z,971.95
2018-07-02T06:56:34.737Z,971.95
2018-07-02T06:57:34.762Z,971.99
2018-07-02T06:58:34.745Z,972.06
2018-07-02T06:59:34.709Z,972.11
2018-07-02T07:00:34.697Z,972.03
2018-07-02T07:01:34.688Z,972.01
2018-07-02T07:02:34.676Z,972.04
2018-07-02T07:03:34.676Z,972.00
2018-07-02T07:04:34.652Z,972.07
2018-07-02T07:05:34.645Z,972.05
2018-07-02T07:06:34.633Z,972.06
2018-07-02T07:07:34.626Z,972.03
2018-07-02T07:08:34.684Z,972.01
2018-07-02T07:09:34.602Z,972.04
2018-07-02T07:10:34.590Z,972.05
2018-07-02T07:11:34.583Z,972.06
2018-07-02T07:12:34.572Z,972.01
2018-07-02T07:13:34.562Z,972.07
2018-07-02T07:14:34.564Z,972.02
2018-07-02T07:15:34.604Z,971.98
2018-07-02T07:16:34.528Z,972.04
2018-07-02T07:17:34.520Z,972.07
2018-07-02T07:18:34.507Z,972.08
2018-07-02T07:19:34.518Z,972.13
2018-07-02T07:20:34.492Z,972.15
2018-07-02T07:21:34.481Z,972.09
2018-07-02T07:22:34.471Z,972.08
2018-07-02T07:23:34.457Z,972.14
2018-07-02T07:24:34.448Z,972.12
2018-07-02T07:25:34.451Z,972.10
2018-07-02T07:26:34.431Z,972.14
2018-07-02T07:27:34.459Z,972.12
2018-07-02T07:28:34.411Z,972.10
2018-07-02T07:29:34.396Z,972.10
2018-07-02T07:30:34.403Z,972.16
2018-07-02T07:31:34.380Z,972.10
2018-07-02T07:32:34.373Z,972.11
2018-07-02T07:33:34.359Z,972.18
2018-07-02T07:34:34.348Z,972.17
2018-07-02T07:35:34.337Z,972.11
2018-07-02T07:36:34.337Z,972.12
2018-07-02T07:37:34.322Z,972.15
2018-07-02T07:38:34.306Z,972.19
2018-07-02T07:39:34.299Z,972.17
2018-07-02T07:40:34.290Z,972.16
2018-07-02T07:41:34.295Z,972.20
2018-07-02T07:42:34.272Z,972.16
2018-07-02T07:43:34.261Z,972.21
2018-07-02T07:44:34.251Z,972.22
2018-07-02T07:45:34.242Z,972.28
2018-07-02T07:46:34.231Z,972.24
2018-07-02T07:47:34.230Z,972.26
2018-07-02T07:48:34.213Z,972.23
2018-07-02T07:49:34.198Z,972.21
2018-07-02T07:50:34.189Z,972.23
2018-07-02T07:51:34.182Z,972.22
2018-07-02T07:52:34.182Z,972.22
2018-07-02T07:53:34.164Z,972.25
2018-07-02T07:54:34.152Z,972.28
2018-07-02T07:55:34.142Z,972.28
2018-07-02T07:56:34.131Z,972.31
2018-07-02T07:57:34.143Z,972.28
2018-07-02T07:58:34.114Z,972.32
2018-07-02T07:59:34.157Z,972.38
2018-07-02T08:00:34.092Z,972.36
2018-07-02T08:01:34.082Z,972.42
2018-07-02T08:02:34.075Z,972.45
2018-07-02T08:03:34.136Z,972.47
2018-07-02T08:04:34.058Z,972.43
2018-07-02T08:05:34.049Z,972.49
2018-07-02T08:06:34.040Z,972.49
2018-07-02T08:07:34.026Z,972.47
2018-07-02T08:08:34.018Z,972.51
2018-07-02T08:09:34.018Z,972.52
2018-07-02T08:10:34.062Z,972.59
2018-07-02T08:11:33.997Z,972.51
2018-07-02T08:12:33.987Z,972.54
2018-07-02T08:13:33.971Z,972.56
2018-07-02T08:14:33.979Z,972.49
2018-07-02T08:15:33.957Z,972.50
2018-07-02T08:16:33.949Z,972.52
2018-07-02T08:17:33.938Z,972.56
2018-07-02T08:18:33.934Z,972.54
2018-07-02T08:19:33.917Z,972.50
2018-07-02T08:20:33.919Z,972.55
2018-07-02T08:21:33.900Z,972.50
2018-07-02T08:22:33.890Z,972.53
2018-07-02T08:23:33.888Z,972.48
2018-07-02T08:24:33.875Z,972.48
2018-07-02T08:25:33.893Z,972.47
2018-07-02T08:26:33.859Z,972.44
2018-07-02T08:27:33.844Z,972.45
2018-07-02T08:28:33.838Z,972.50
2018-07-02T08:29:33.831Z,972.51
2018-07-02T08:30:33.824Z,972.53
2018-07-02T08:31:33.822Z,972.52
2018-07-02T08:32:33.801Z,972.49
2018-07-02T08:33:33.793Z,972.42
2018-07-02T08:34:33.786Z,972.48
2018-07-02T08:35:33.777Z,972.45
2018-07-02T08:36:33.784Z,972.40
2018-07-02T08:37:33.765Z,972.44
2018-07-02T08:38:33.753Z,972.46
2018-07-02T08:39:33.743Z,972.51
2018-07-02T08:40:33.732Z,972.48
2018-07-02T08:41:33.744Z,972.46
2018-07-02T08:42:33.725Z,972.51
2018-07-02T08:43:33.712Z,972.52
2018-07-02T08:44:33.702Z,972.51
2018-07-02T08:45:33.697Z,972.48
2018-07-02T08:46:33.700Z,972.52
2018-07-02T08:47:33.700Z,972.47
2018-07-02T08:48:33.669Z,972.45
2018-07-02T08:49:33.662Z,972.48
2018-07-02T08:50:33.656Z,972.47
2018-07-02T08:51:33.648Z,972.47
2018-07-02T08:52:33.641Z,972.50
2018-07-02T08:53:33.642Z,972.55
2018-07-02T08:54:33.623Z,972.56
2018-07-02T08:55:33.613Z,972.57
2018-07-02T08:56:33.604Z,972.55
2018-07-02T08:57:33.595Z,972.45
2018-07-02T08:58:33.606Z,972.46
2018-07-02T08:59:33.577Z,972.45
2018-07-02T09:00:33.566Z,972.48
2018-07-02T09:01:33.559Z,972.43
2018-07-02T09:02:33.550Z,972.48
2018-07-02T09:03:33.538Z,972.47
2018-07-02T09:04:33.546Z,972.49
2018-07-02T09:05:33.521Z,972.48
2018-07-02T09:06:33.510Z,972.46
2018-07-02T09:07:33.505Z,972.45
2018-07-02T09:08:33.495Z,972.47
2018-07-02T09:09:33.499Z,972.55
2018-07-02T09:10:33.481Z,972.51
2018-07-02T09:11:33.467Z,972.47
2018-07-02T09:12:33.469Z,972.49
2018-07-02T09:13:33.447Z,972.54
2018-07-02T09:14:33.456Z,972.57
2018-07-02T09:15:33.434Z,972.59
2018-07-02T09:16:33.425Z,972.61
2018-07-02T09:17:33.413Z,972.56
2018-07-02T09:18:33.410Z,972.55
2018-07-02T09:19:33.401Z,972.56
2018-07-02T09:20:33.409Z,972.54
2018-07-02T09:21:33.384Z,972.52
2018-07-02T09:22:33.376Z,972.56
2018-07-02T09:23:33.364Z,972.55
2018-07-02T09:24:33.358Z,972.59
2018-07-02T09:25:33.422Z,972.55
2018-07-02T09:26:33.363Z,972.54
2018-07-02T09:27:33.334Z,972.56
2018-07-02T09:28:33.325Z,972.54
2018-07-02T09:29:33.318Z,972.57
2018-07-02T09:30:33.311Z,972.55
2018-07-02T09:31:33.308Z,972.63
2018-07-02T09:32:33.295Z,972.59
2018-07-02T09:33:33.283Z,972.66
2018-07-02T09:34:33.278Z,972.65
2018-07-02T09:35:33.283Z,972.66
2018-07-02T09:36:33.273Z,972.66
2018-07-02T09:37:33.244Z,972.61
2018-07-02T09:38:33.242Z,972.58
2018-07-02T09:39:33.231Z,972.57
2018-07-02T09:40:33.225Z,972.54
2018-07-02T09:41:33.214Z,972.51
2018-07-02T09:42:33.225Z,972.53
2018-07-02T09:43:33.195Z,972.44
2018-07-02T09:44:33.186Z,972.42
2018-07-02T09:45:33.189Z,972.51
2018-07-02T09:46:33.168Z,972.60
2018-07-02T09:47:33.163Z,972.63
2018-07-02T09:48:33.341Z,972.65
2018-07-02T09:49:33.167Z,972.64
2018-07-02T09:50:33.140Z,972.67
2018-07-02T09:51:33.134Z,972.53
2018-07-02T09:52:33.121Z,972.61
2018-07-02T09:53:33.129Z,972.61
2018-07-02T09:54:33.106Z,971.80
2018-07-02T09:55:33.093Z,971.63
2018-07-02T09:56:33.084Z,971.58
2018-07-02T09:57:33.076Z,971.52
2018-07-02T09:58:33.068Z,971.49
2018-07-02T09:59:33.070Z,971.39
2018-07-02T10:00:33.101Z,971.41
2018-07-02T10:01:33.042Z,971.37
2018-07-02T10:02:33.033Z,971.36
2018-07-02T10:03:33.020Z,971.34
2018-07-02T10:04:33.027Z,971.81
2018-07-02T10:05:33.005Z,971.95
2018-07-02T10:06:33.040Z,972.01
2018-07-02T10:07:32.984Z,972.12
2018-07-02T10:08:32.975Z,972.20
2018-07-02T10:09:32.968Z,972.27
2018-07-02T10:10:32.969Z,972.33
2018-07-02T10:11:32.958Z,972.26
2018-07-02T10:12:32.961Z,972.36
2018-07-02T10:13:32.939Z,972.35
2018-07-02T10:14:32.931Z,972.28
2018-07-02T10:15:32.940Z,972.31
2018-07-02T10:16:32.915Z,972.25
2018-07-02T10:17:32.906Z,972.27
2018-07-02T10:18:32.906Z,972.35
2018-07-02T10:19:32.895Z,972.37
2018-07-02T10:20:32.888Z,971.88
2018-07-02T10:21:32.889Z,972.38
2018-07-02T10:22:32.870Z,972.39
2018-07-02T10:23:37.333Z,972.42
2018-07-02T10:24:32.862Z,972.44
2018-07-02T10:25:32.853Z,972.39
2018-07-02T10:26:32.898Z,972.36
2018-07-02T10:27:32.837Z,972.42
2018-07-02T10:28:32.829Z,972.39
2018-07-02T10:29:32.823Z,972.43
2018-07-02T10:30:32.815Z,972.41
2018-07-02T10:31:32.814Z,972.43
2018-07-02T10:32:32.815Z,971.83
2018-07-02T10:33:32.797Z,971.67
2018-07-02T10:34:32.789Z,971.63
2018-07-02T10:35:32.778Z,971.60
2018-07-02T10:36:32.769Z,971.56
2018-07-02T10:37:32.780Z,971.45
2018-07-02T10:38:32.755Z,971.45
2018-07-02T10:39:32.746Z,971.42
2018-07-02T10:40:32.733Z,971.37
2018-07-02T10:41:32.725Z,971.38
2018-07-02T10:42:32.716Z,971.38
2018-07-02T10:43:32.719Z,971.37
2018-07-02T10:44:32.701Z,971.36
2018-07-02T10:45:32.692Z,971.41
2018-07-02T10:46:32.682Z,971.38
2018-07-02T10:47:32.668Z,971.43
2018-07-02T10:48:32.679Z,971.39
2018-07-02T10:49:32.650Z,971.40
2018-07-02T10:50:32.641Z,971.40
2018-07-02T10:51:32.635Z,971.40
2018-07-02T10:52:32.627Z,971.37
2018-07-02T10:53:32.614Z,971.38
2018-07-02T10:54:32.613Z,971.38
2018-07-02T10:55:32.613Z,971.42
2018-07-02T10:56:32.590Z,971.40
2018-07-02T10:57:32.581Z,971.40
2018-07-02T10:58:32.573Z,971.40
2018-07-02T10:59:32.576Z,971.41
2018-07-02T11:00:32.548Z,971.45
2018-07-02T11:01:32.542Z,971.41
2018-07-02T11:02:32.532Z,971.42
2018-07-02T11:03:32.524Z,971.33
2018-07-02T11:04:32.514Z,971.38
2018-07-02T11:05:32.516Z,971.41
2018-07-02T11:06:32.496Z,971.41
2018-07-02T11:07:32.483Z,971.40
2018-07-02T11:08:32.477Z,971.35
2018-07-02T11:09:32.468Z,971.37
2018-07-02T11:10:32.469Z,971.42
2018-07-02T11:11:32.446Z,971.38
2018-07-02T11:12:32.436Z,971.40
2018-07-02T11:13:32.426Z,971.37
2018-07-02T11:14:32.419Z,971.33
2018-07-02T11:15:32.421Z,971.39
2018-07-02T11:16:32.402Z,971.37
2018-07-02T11:17:32.392Z,971.36
2018-07-02T11:18:32.387Z,971.40
2018-07-02T11:19:32.373Z,971.41
2018-07-02T11:20:32.379Z,971.92
2018-07-02T11:21:32.352Z,972.10
2018-07-02T11:22:32.343Z,972.20
2018-07-02T11:23:32.376Z,972.31
2018-07-02T11:24:32.331Z,972.28
2018-07-02T11:25:32.319Z,972.28
2018-07-02T11:26:32.327Z,972.34
2018-07-02T11:27:32.312Z,972.31
2018-07-02T11:28:32.299Z,972.31
2018-07-02T11:29:32.291Z,972.41
2018-07-02T11:30:32.285Z,972.39
2018-07-02T11:31:32.280Z,972.43
2018-07-02T11:32:32.281Z,972.40
2018-07-02T11:33:32.258Z,972.40
2018-07-02T11:34:32.251Z,972.40
2018-07-02T11:35:32.246Z,972.41
2018-07-02T11:36:32.240Z,972.42
2018-07-02T11:37:32.281Z,972.37
2018-07-02T11:38:32.236Z,972.34
2018-07-02T11:39:32.215Z,972.43
2018-07-02T11:40:32.208Z,972.43
2018-07-02T11:41:32.204Z,972.44
2018-07-02T11:42:32.273Z,972.42
2018-07-02T11:43:32.203Z,972.45
2018-07-02T11:44:32.182Z,972.49
2018-07-02T11:45:32.194Z,972.53
2018-07-02T11:46:32.165Z,972.55
2018-07-02T11:47:33.023Z,972.51
2018-07-02T11:48:32.159Z,972.53
2018-07-02T11:49:32.176Z,972.48
2018-07-02T11:51:40.897Z,972.44
2018-07-02T11:52:40.891Z,972.41
2018-07-02T11:53:40.884Z,972.47
2018-07-02T11:54:40.889Z,972.41
2018-07-02T11:55:40.873Z,972.41
2018-07-02T11:56:40.867Z,972.43
2018-07-02T11:57:40.860Z,972.42
2018-07-02T11:58:40.854Z,972.39
2018-07-02T11:59:40.865Z,972.38
2018-07-02T12:00:40.838Z,972.45
2018-07-02T12:01:40.831Z,972.39
2018-07-02T12:02:40.825Z,972.44
2018-07-02T12:03:40.828Z,972.45
2018-07-02T12:04:40.815Z,972.46
2018-07-02T12:05:40.821Z,972.45
2018-07-02T12:06:40.801Z,972.51
2018-07-02T12:07:40.796Z,972.43
2018-07-02T12:08:40.792Z,972.43
2018-07-02T12:09:40.784Z,972.41
2018-07-02T12:10:40.796Z,972.42
2018-07-02T12:11:40.769Z,972.47
2018-07-02T12:12:40.766Z,972.46
2018-07-02T12:13:40.756Z,972.48
2018-07-02T12:14:40.759Z,972.47
2018-07-02T12:15:40.746Z,972.51
2018-07-02T12:16:40.752Z,972.45
2018-07-02T12:17:40.734Z,972.45
2018-07-02T12:18:40.728Z,972.48
2018-07-02T12:19:40.718Z,972.45
2018-07-02T12:20:40.712Z,972.44
2018-07-02T12:21:40.726Z,972.42
2018-07-02T12:22:40.706Z,972.42
2018-07-02T12:23:40.694Z,972.41
2018-07-02T12:24:40.688Z,972.43
2018-07-02T12:25:40.680Z,972.41
2018-07-02T12:26:40.673Z,972.39
2018-07-02T12:27:40.679Z,972.41
2018-07-02T12:28:40.670Z,972.39
2018-07-02T12:29:40.656Z,972.37